Time;durP1;ratioP1;P1;durP2;ratioP2;P2;SDS_P1;SDS_P2;PMS_P1;PMS_P2;Temp;Humidity;BMP_temperature;BMP_pressure;BME280_temperature;BME280_humidity;BME280_pressure;Samples;Min_cycle;Max_cycle;Signal;HPM_P1;HPM_P2
2022/08/07 00:02:06;;;;;;;4.43;2.72;;;20.60;80.40;;;;;;6923207;28;20445;-81
2022/08/07 00:05:28;;;;;;;4.67;2.90;;;20.60;80.70;;;;;;6924190;28;20449;-84
2022/08/07 00:08:51;;;;;;;5.18;2.92;;;20.50;81.20;;;;;;6917479;28;20433;-83
2022/08/07 00:12:13;;;;;;;5.72;2.80;;;20.40;81.70;;;;;;6876168;28;20473;-83
2022/08/07 00:15:37;;;;;;;6.70;2.85;;;20.30;81.40;;;;;;6894055;28;20446;-84
2022/08/07 00:18:59;;;;;;;5.45;2.80;;;20.20;81.70;;;;;;6896827;28;20426;-84
2022/08/07 00:22:21;;;;;;;4.70;3.00;;;20.10;82.10;;;;;;6901717;28;20434;-81
2022/08/07 00:25:43;;;;;;;5.13;3.05;;;19.90;82.70;;;;;;6909710;28;20442;-81
2022/08/07 00:29:05;;;;;;;25.37;16.30;;;19.90;83.00;;;;;;6875866;28;20446;-83
2022/08/07 00:32:29;;;;;;;13.38;7.38;;;20.00;82.70;;;;;;6893160;28;20430;-83
2022/08/07 00:35:51;;;;;;;10.50;6.80;;;20.00;83.10;;;;;;6898710;28;20468;-83
2022/08/07 00:39:13;;;;;;;5.85;3.20;;;19.90;83.10;;;;;;6880671;28;20445;-84
2022/08/07 00:42:36;;;;;;;4.70;3.08;;;20.00;83.20;;;;;;6896259;28;20441;-83
2022/08/07 00:45:58;;;;;;;5.00;3.20;;;19.80;83.60;;;;;;6910177;28;20478;-82
2022/08/07 00:49:21;;;;;;;5.72;2.95;;;19.40;84.00;;;;;;6928421;28;20437;-84
2022/08/07 00:52:44;;;;;;;5.97;3.20;;;19.40;84.70;;;;;;6915686;28;20479;-82
2022/08/07 00:56:07;;;;;;;5.15;3.28;;;19.40;84.80;;;;;;6917065;28;20430;-82
2022/08/07 00:59:29;;;;;;;5.95;3.03;;;19.40;84.50;;;;;;6896495;28;20430;-83
2022/08/07 01:02:52;;;;;;;4.28;3.08;;;19.50;84.40;;;;;;6905595;28;20419;-81
2022/08/07 01:06:16;;;;;;;6.45;3.08;;;19.40;85.10;;;;;;6879010;28;20426;-84
2022/08/07 01:09:38;;;;;;;5.57;3.20;;;19.40;84.70;;;;;;6894410;28;20437;-82
2022/08/07 01:13:00;;;;;;;6.47;3.85;;;19.40;85.30;;;;;;6893241;28;20441;-84
2022/08/07 01:16:24;;;;;;;6.03;3.20;;;19.40;85.50;;;;;;6915807;28;20914;-82
2022/08/07 01:19:47;;;;;;;4.88;3.08;;;19.40;85.50;;;;;;6917657;28;20439;-82
2022/08/07 01:23:11;;;;;;;4.50;3.20;;;19.50;85.50;;;;;;6916807;28;20953;-82
2022/08/07 01:26:34;;;;;;;5.45;3.20;;;19.50;85.30;;;;;;6917394;28;20444;-83
2022/08/07 01:29:56;;;;;;;5.32;3.13;;;19.40;85.60;;;;;;6919749;28;20456;-83
2022/08/07 01:33:18;;;;;;;5.35;3.25;;;19.20;85.70;;;;;;6900231;28;20902;-84
2022/08/07 01:36:41;;;;;;;5.00;3.27;;;19.20;86.30;;;;;;6917438;28;20432;-84
2022/08/07 01:40:08;;;;;;;5.25;3.50;;;19.10;86.40;;;;;;6897533;28;20438;-83
2022/08/07 01:43:31;;;;;;;5.60;3.40;;;19.00;86.20;;;;;;6898864;28;20424;-85
2022/08/07 01:46:54;;;;;;;5.30;3.00;;;18.90;86.60;;;;;;6939427;28;20429;-84
2022/08/07 01:50:16;;;;;;;9.57;6.50;;;18.90;87.10;;;;;;6918972;28;20818;-83
2022/08/07 01:53:44;;;;;;;6.23;3.77;;;18.90;86.80;;;;;;6908496;28;20449;-86
2022/08/07 01:57:14;;;;;;;6.50;3.85;;;18.90;86.60;;;;;;6893055;28;20430;-85
2022/08/07 02:00:37;;;;;;;5.78;3.40;;;18.80;86.80;;;;;;6892497;28;20430;-85
2022/08/07 02:04:09;;;;;;;5.57;3.60;;;18.90;87.00;;;;;;6890570;28;20816;-83
2022/08/07 02:07:36;;;;;;;5.40;3.58;;;18.90;87.20;;;;;;6884243;28;20438;-82
2022/08/07 02:11:01;;;;;;;6.60;3.40;;;18.80;87.00;;;;;;6907965;28;20828;-82
2022/08/07 02:14:27;;;;;;;5.20;3.40;;;18.70;87.30;;;;;;6901571;28;20440;-82
2022/08/07 02:17:52;;;;;;;5.63;3.70;;;18.60;87.60;;;;;;6916985;28;20467;-82
2022/08/07 02:21:17;;;;;;;4.75;3.35;;;18.60;88.10;;;;;;6918425;28;20435;-83
2022/08/07 02:24:41;;;;;;;4.80;3.03;;;18.60;88.40;;;;;;6903921;28;20440;-84
2022/08/07 02:28:04;;;;;;;6.07;3.40;;;18.60;87.60;;;;;;6900848;28;20433;-84
2022/08/07 02:31:29;;;;;;;5.47;3.30;;;18.50;88.10;;;;;;6890816;28;20572;-83
2022/08/07 02:34:53;;;;;;;5.60;3.17;;;18.60;87.70;;;;;;6907133;28;20531;-81
2022/08/07 02:38:16;;;;;;;6.40;3.30;;;18.60;87.70;;;;;;6915565;28;20432;-80
2022/08/07 02:41:38;;;;;;;4.63;2.90;;;18.60;87.60;;;;;;6915109;28;20443;-79
2022/08/07 02:45:03;;;;;;;5.03;3.10;;;18.60;87.80;;;;;;6911929;28;20472;-78
2022/08/07 02:48:27;;;;;;;4.20;3.00;;;18.60;87.70;;;;;;6887754;28;20537;-79
2022/08/07 02:51:50;;;;;;;5.37;3.20;;;18.60;88.10;;;;;;6886667;28;20470;-79
2022/08/07 02:55:18;;;;;;;5.45;3.40;;;18.50;87.70;;;;;;6887141;28;20469;-80
2022/08/07 02:58:42;;;;;;;6.00;3.50;;;18.60;88.50;;;;;;6886250;28;20916;-79
2022/08/07 03:02:05;;;;;;;6.40;3.60;;;18.60;88.20;;;;;;6886409;28;20438;-79
2022/08/07 03:05:29;;;;;;;6.55;3.90;;;18.60;88.10;;;;;;6885507;28;20928;-81
2022/08/07 03:08:52;;;;;;;5.47;3.97;;;18.50;88.60;;;;;;6886991;28;20461;-78
2022/08/07 03:12:16;;;;;;;5.20;3.50;;;18.50;88.70;;;;;;6886921;28;20437;-81
2022/08/07 03:15:38;;;;;;;5.07;3.10;;;18.40;88.90;;;;;;6885302;28;20461;-80
2022/08/07 03:19:01;;;;;;;4.90;3.20;;;18.40;88.90;;;;;;6887486;28;20550;-80
2022/08/07 03:22:26;;;;;;;5.88;3.30;;;18.40;88.00;;;;;;6887451;28;20920;-80
2022/08/07 03:25:49;;;;;;;5.73;3.30;;;18.40;88.00;;;;;;6900033;28;20473;-78
2022/08/07 03:29:13;;;;;;;4.95;3.50;;;18.40;88.20;;;;;;6862235;28;20435;-81
2022/08/07 03:32:39;;;;;;;4.95;3.30;;;18.30;88.20;;;;;;6863017;28;20442;-80
2022/08/07 03:36:01;;;;;;;4.93;3.30;;;18.20;89.00;;;;;;6887273;28;20921;-79
2022/08/07 03:39:27;;;;;;;4.75;3.22;;;18.20;89.10;;;;;;6886193;28;20543;-80
2022/08/07 03:42:50;;;;;;;5.03;3.37;;;18.30;88.70;;;;;;6886587;28;20460;-79
2022/08/07 03:46:14;;;;;;;5.47;3.20;;;18.30;88.70;;;;;;6887268;28;20430;-81
2022/08/07 03:49:36;;;;;;;4.70;3.30;;;18.20;88.80;;;;;;6878114;28;20814;-80
2022/08/07 03:52:59;;;;;;;5.30;3.33;;;18.20;88.50;;;;;;6885304;28;20446;-81
2022/08/07 03:56:25;;;;;;;5.63;3.38;;;18.10;88.70;;;;;;6885352;28;20483;-80
2022/08/07 03:59:47;;;;;;;5.22;3.53;;;18.00;87.50;;;;;;6887102;28;20441;-80
2022/08/07 04:03:09;;;;;;;4.60;3.10;;;17.90;87.70;;;;;;6885160;28;20446;-82
2022/08/07 04:06:32;;;;;;;6.03;3.37;;;17.90;89.10;;;;;;6885853;28;20518;-81
2022/08/07 04:09:55;;;;;;;4.78;3.25;;;17.90;88.30;;;;;;6886785;28;20470;-81
2022/08/07 04:13:19;;;;;;;5.35;3.75;;;17.90;88.20;;;;;;6886893;28;20836;-80
2022/08/07 04:16:41;;;;;;;5.07;3.40;;;17.80;88.90;;;;;;6867765;28;20446;-81
2022/08/07 04:20:05;;;;;;;5.93;3.40;;;17.80;88.80;;;;;;6885993;28;20492;-79
2022/08/07 04:23:27;;;;;;;5.63;3.45;;;17.80;88.80;;;;;;6892487;28;20901;-79
2022/08/07 04:26:50;;;;;;;5.85;3.60;;;17.70;88.80;;;;;;6888868;28;20441;-82
2022/08/07 04:30:14;;;;;;;5.50;3.30;;;17.70;88.90;;;;;;6887237;28;20446;-82
2022/08/07 04:33:37;;;;;;;4.78;3.08;;;17.60;89.20;;;;;;6886568;28;20438;-81
2022/08/07 04:36:59;;;;;;;5.20;3.37;;;17.40;89.60;;;;;;6886838;28;20437;-78
2022/08/07 04:40:22;;;;;;;4.75;3.00;;;17.40;90.10;;;;;;6890257;28;20442;-78
2022/08/07 04:43:45;;;;;;;4.90;3.40;;;17.40;90.10;;;;;;6890121;28;20473;-80
2022/08/07 04:47:13;;;;;;;4.93;3.00;;;17.40;90.20;;;;;;6896034;28;20440;-79
2022/08/07 04:50:41;;;;;;;5.77;3.30;;;17.40;90.20;;;;;;6903987;28;20551;-78
2022/08/07 04:54:15;;;;;;;4.65;3.08;;;17.30;90.30;;;;;;6891448;28;20434;-81
2022/08/07 04:57:45;;;;;;;4.87;3.20;;;17.30;90.30;;;;;;6895985;28;20525;-85
2022/08/07 05:01:15;;;;;;;5.78;3.22;;;17.20;90.50;;;;;;6903329;28;20941;-84
2022/08/07 05:04:46;;;;;;;5.20;3.33;;;17.20;90.40;;;;;;6901617;28;20488;-79
2022/08/07 05:08:18;;;;;;;5.32;3.10;;;17.20;90.50;;;;;;6878618;28;20439;-80
2022/08/07 05:11:45;;;;;;;4.53;3.22;;;17.30;90.30;;;;;;6883666;28;20463;-81
2022/08/07 05:15:21;;;;;;;5.60;3.20;;;17.30;90.70;;;;;;6892631;28;20519;-79
2022/08/07 05:18:50;;;;;;;5.97;3.20;;;17.40;90.40;;;;;;6892105;28;20527;-80
2022/08/07 05:22:16;;;;;;;4.60;3.10;;;17.50;90.40;;;;;;6889901;28;20509;-83
2022/08/07 05:25:42;;;;;;;4.30;3.20;;;17.50;90.60;;;;;;6870874;28;20436;-83
2022/08/07 05:29:08;;;;;;;5.97;3.15;;;17.40;90.70;;;;;;6889194;28;20461;-84
2022/08/07 05:32:31;;;;;;;5.10;2.95;;;17.50;90.40;;;;;;6944184;28;20440;-83
2022/08/07 05:35:54;;;;;;;4.97;3.15;;;17.40;89.30;;;;;;6924028;28;20444;-80
2022/08/07 05:39:21;;;;;;;6.05;2.90;;;17.50;90.10;;;;;;6922570;28;20422;-83
2022/08/07 05:42:43;;;;;;;4.85;2.90;;;17.60;90.00;;;;;;6905618;28;20449;-85
2022/08/07 05:46:06;;;;;;;6.57;3.20;;;17.60;90.30;;;;;;6935617;28;20428;-84
2022/08/07 05:49:29;;;;;;;4.73;2.70;;;17.60;90.00;;;;;;6947695;28;20469;-82
2022/08/07 05:52:51;;;;;;;4.47;2.95;;;17.70;90.20;;;;;;6951168;28;20420;-83
2022/08/07 05:56:17;;;;;;;4.93;3.28;;;17.90;89.80;;;;;;6929886;28;20440;-83
2022/08/07 05:59:42;;;;;;;5.88;3.03;;;17.80;89.70;;;;;;6900368;28;20442;-86
2022/08/07 06:03:06;;;;;;;5.63;3.03;;;17.80;89.80;;;;;;6895283;28;20434;-82
2022/08/07 06:06:28;;;;;;;5.75;2.67;;;17.80;89.20;;;;;;6869342;28;20432;-82
2022/08/07 06:09:51;;;;;;;5.18;2.58;;;17.90;88.40;;;;;;6906149;28;20442;-81
2022/08/07 06:13:15;;;;;;;4.38;2.70;;;17.90;88.60;;;;;;6918445;28;20436;-81
2022/08/07 06:16:39;;;;;;;4.83;2.77;;;17.80;89.00;;;;;;6918633;28;20440;-81
2022/08/07 06:20:02;;;;;;;4.85;2.70;;;17.90;88.90;;;;;;6880689;28;20477;-80
2022/08/07 06:23:25;;;;;;;4.95;2.75;;;18.10;88.70;;;;;;6878471;28;20805;-79
2022/08/07 06:26:47;;;;;;;6.05;3.40;;;18.10;89.00;;;;;;6892354;28;20485;-81
2022/08/07 06:30:12;;;;;;;10.63;6.85;;;18.10;88.70;;;;;;6884837;28;20441;-81
2022/08/07 06:33:35;;;;;;;6.55;3.65;;;18.20;88.70;;;;;;6883421;28;20927;-83
2022/08/07 06:36:57;;;;;;;7.15;3.83;;;18.40;88.40;;;;;;6886961;28;20437;-82
2022/08/07 06:40:19;;;;;;;5.35;2.95;;;18.50;89.10;;;;;;6891930;28;20442;-82
2022/08/07 06:43:43;;;;;;;6.20;2.77;;;18.60;89.10;;;;;;6912083;28;20436;-78
2022/08/07 06:47:07;;;;;;;5.18;3.03;;;18.70;89.40;;;;;;6916417;28;20445;-83
2022/08/07 06:50:34;;;;;;;4.60;2.70;;;18.70;89.30;;;;;;6903185;28;20433;-77
2022/08/07 06:54:01;;;;;;;6.28;3.10;;;18.90;90.00;;;;;;6886851;28;20430;-77
2022/08/07 06:57:25;;;;;;;6.30;3.10;;;19.10;89.60;;;;;;6884417;28;20454;-77
2022/08/07 07:00:49;;;;;;;5.78;3.28;;;19.10;90.30;;;;;;6894833;28;20437;-76
2022/08/07 07:04:14;;;;;;;7.18;3.45;;;19.30;89.90;;;;;;6895775;28;20434;-76
2022/08/07 07:07:36;;;;;;;5.63;3.50;;;19.30;89.80;;;;;;6877553;28;20463;-76
2022/08/07 07:10:58;;;;;;;5.93;3.78;;;19.40;89.90;;;;;;6912666;28;20806;-78
2022/08/07 07:14:24;;;;;;;6.47;3.90;;;19.50;90.10;;;;;;6913077;28;20508;-77
2022/08/07 07:17:58;;;;;;;7.25;3.95;;;19.60;90.40;;;;;;6912735;28;20432;-74
2022/08/07 07:21:26;;;;;;;7.13;4.22;;;19.70;90.60;;;;;;6914061;28;20429;-75
2022/08/07 07:24:50;;;;;;;5.80;3.65;;;19.80;90.50;;;;;;6912297;28;20439;-77
2022/08/07 07:28:20;;;;;;;6.07;3.97;;;19.90;90.60;;;;;;6910620;28;20463;-78
2022/08/07 07:31:47;;;;;;;5.50;3.53;;;20.00;90.50;;;;;;6899919;28;20856;-76
2022/08/07 07:35:12;;;;;;;6.00;3.35;;;20.00;90.20;;;;;;6902966;28;20795;-78
2022/08/07 07:38:35;;;;;;;4.82;3.15;;;19.90;90.10;;;;;;6882797;28;20534;-76
2022/08/07 07:42:00;;;;;;;7.43;2.95;;;20.10;88.90;;;;;;6906005;28;20793;-78
2022/08/07 07:45:27;;;;;;;5.78;3.90;;;20.10;88.60;;;;;;6886692;28;20449;-76
2022/08/07 07:48:50;;;;;;;4.18;2.80;;;20.20;87.40;;;;;;6903015;28;20459;-78
2022/08/07 07:52:15;;;;;;;5.47;2.63;;;20.20;86.70;;;;;;6914944;28;20772;-75
2022/08/07 07:55:39;;;;;;;4.37;2.20;;;20.30;86.20;;;;;;6913254;28;21175;-75
2022/08/07 07:59:03;;;;;;;4.80;1.90;;;20.40;85.20;;;;;;6911575;28;20456;-77
2022/08/07 08:02:28;;;;;;;4.03;1.80;;;20.40;84.40;;;;;;6909764;28;21135;-79
2022/08/07 08:05:52;;;;;;;3.85;1.67;;;20.50;83.80;;;;;;6909013;28;20457;-77
2022/08/07 08:09:19;;;;;;;3.40;1.70;;;20.50;82.40;;;;;;6907452;28;20447;-81
2022/08/07 08:12:43;;;;;;;13.27;9.13;;;20.60;81.90;;;;;;6913026;28;20459;-80
2022/08/07 08:16:07;;;;;;;3.58;1.80;;;20.70;80.80;;;;;;6914863;28;20948;-80
2022/08/07 08:19:33;;;;;;;5.70;2.10;;;20.70;79.50;;;;;;6914791;28;20439;-80
2022/08/07 08:30:19;;;;;;;4.00;1.20;;;20.80;76.10;;;;;;6914695;28;20456;-79
2022/08/07 08:33:42;;;;;;;3.85;1.13;;;20.90;76.10;;;;;;6914484;28;20562;-78
2022/08/07 08:37:07;;;;;;;3.10;1.30;;;21.00;74.40;;;;;;6914241;28;20447;-78
2022/08/07 08:40:35;;;;;;;3.57;1.20;;;21.10;74.10;;;;;;6913956;28;20433;-79
2022/08/07 08:44:07;;;;;;;4.07;1.20;;;21.20;73.20;;;;;;6914185;28;21123;-77
2022/08/07 08:47:39;;;;;;;3.20;1.10;;;21.20;72.70;;;;;;6912739;28;20448;-80
2022/08/07 08:51:09;;;;;;;3.00;1.10;;;21.30;72.70;;;;;;6907331;28;20466;-81
2022/08/07 08:54:38;;;;;;;3.20;1.17;;;21.40;72.10;;;;;;6899013;28;20437;-77
2022/08/07 08:58:07;;;;;;;5.73;2.20;;;21.50;72.20;;;;;;6909087;28;20436;-77
2022/08/07 09:01:37;;;;;;;3.78;1.40;;;21.50;72.30;;;;;;6888227;28;20473;-77
2022/08/07 09:05:28;;;;;;;2.83;1.20;;;21.50;71.00;;;;;;6887151;28;20474;-77
2022/08/07 09:09:00;;;;;;;3.05;1.13;;;21.50;70.80;;;;;;6904252;28;20468;-79
2022/08/07 09:12:37;;;;;;;2.83;1.05;;;21.70;71.00;;;;;;6902662;28;20440;-80
2022/08/07 09:16:07;;;;;;;4.25;1.38;;;21.70;70.40;;;;;;6887094;28;20442;-78
2022/08/07 09:19:47;;;;;;;3.15;1.25;;;21.80;72.30;;;;;;6885202;28;20474;-77
2022/08/07 09:23:26;;;;;;;2.45;1.30;;;22.00;72.90;;;;;;6886074;28;20449;-77
2022/08/07 09:27:02;;;;;;;6.30;2.50;;;22.00;69.50;;;;;;6885764;28;20473;-77
2022/08/07 09:30:28;;;;;;;2.60;1.10;;;22.00;67.80;;;;;;6886651;28;20533;-77
2022/08/07 09:34:09;;;;;;;3.30;1.20;;;22.10;66.00;;;;;;6891463;28;20471;-78
2022/08/07 09:37:41;;;;;;;3.40;1.33;;;22.20;66.10;;;;;;6894609;28;20854;-75
2022/08/07 09:41:18;;;;;;;2.97;1.40;;;22.30;69.30;;;;;;6893696;28;20439;-76
2022/08/07 09:44:49;;;;;;;2.60;1.08;;;22.30;67.00;;;;;;6903474;28;20436;-76
2022/08/07 09:48:27;;;;;;;2.58;1.00;;;22.40;66.10;;;;;;6908732;28;20444;-78
2022/08/07 09:52:03;;;;;;;3.22;1.20;;;22.60;64.20;;;;;;6888999;28;20463;-79
2022/08/07 09:55:40;;;;;;;3.00;1.10;;;22.60;62.50;;;;;;6906017;28;20445;-77
2022/08/07 09:59:23;;;;;;;2.92;0.90;;;22.70;64.90;;;;;;6898325;28;20957;-87
2022/08/07 10:03:17;;;;;;;3.95;0.80;;;22.80;60.90;;;;;;6913467;28;20432;-82
2022/08/07 10:07:18;;;;;;;2.27;0.90;;;22.80;59.80;;;;;;6901197;28;20494;-78
2022/08/07 10:10:48;;;;;;;5.83;1.20;;;22.80;60.00;;;;;;6875269;28;20442;-80
2022/08/07 10:14:40;;;;;;;7.53;0.97;;;22.80;59.70;;;;;;6889973;28;20496;-81
2022/08/07 10:18:34;;;;;;;2.90;1.00;;;22.90;59.80;;;;;;6888549;28;20502;-79
2022/08/07 10:22:12;;;;;;;3.80;2.90;;;23.00;59.40;;;;;;6888582;28;20912;-81
2022/08/07 10:25:54;;;;;;;5.88;3.63;;;23.10;60.20;;;;;;6888690;28;20504;-80
2022/08/07 10:29:58;;;;;;;5.45;2.60;;;23.00;59.60;;;;;;6888519;28;20441;-81
2022/08/07 10:33:45;;;;;;;2.63;1.10;;;23.20;59.60;;;;;;6888509;28;20520;-81
2022/08/07 10:37:24;;;;;;;2.53;0.90;;;23.10;57.90;;;;;;6887692;28;20446;-80
2022/08/07 10:40:52;;;;;;;2.38;1.00;;;23.20;58.00;;;;;;6888593;28;20430;-79
2022/08/07 10:44:26;;;;;;;3.30;1.40;;;23.40;58.50;;;;;;6887965;28;20923;-79
2022/08/07 10:48:03;;;;;;;3.72;1.20;;;23.30;57.30;;;;;;6888607;28;20437;-80
2022/08/07 10:51:38;;;;;;;5.10;3.50;;;23.30;57.20;;;;;;6889868;28;20442;-80
2022/08/07 10:55:11;;;;;;;5.57;3.40;;;23.30;57.70;;;;;;6888144;28;20841;-83
2022/08/07 10:58:52;;;;;;;2.92;1.10;;;23.40;57.50;;;;;;6887946;28;20490;-82
2022/08/07 11:02:29;;;;;;;2.85;0.95;;;23.50;57.70;;;;;;6888265;28;20430;-79
2022/08/07 11:06:01;;;;;;;3.00;0.90;;;23.50;56.70;;;;;;6887845;28;20437;-80
2022/08/07 11:09:29;;;;;;;3.03;0.90;;;23.60;57.60;;;;;;6888090;28;20430;-81
2022/08/07 11:13:00;;;;;;;3.33;1.00;;;23.70;57.60;;;;;;6887561;28;20457;-80
2022/08/07 11:16:28;;;;;;;2.70;1.00;;;23.70;57.00;;;;;;6887526;28;20442;-82
2022/08/07 11:19:59;;;;;;;3.70;0.90;;;23.70;56.70;;;;;;6887200;28;20442;-80
2022/08/07 11:23:28;;;;;;;4.00;0.90;;;23.70;56.90;;;;;;6886559;28;20462;-81
2022/08/07 11:26:57;;;;;;;2.87;1.00;;;23.90;58.00;;;;;;6883862;28;20980;-82
2022/08/07 11:30:24;;;;;;;2.85;1.10;;;24.00;56.70;;;;;;6888525;28;20438;-83
2022/08/07 11:33:51;;;;;;;10.13;6.00;;;24.00;56.60;;;;;;6889432;28;20440;-79
2022/08/07 11:37:49;;;;;;;4.95;1.80;;;24.10;56.10;;;;;;6882250;28;20800;-82
2022/08/07 11:41:15;;;;;;;3.00;1.00;;;24.10;56.00;;;;;;6887074;28;20531;-80
2022/08/07 11:44:50;;;;;;;2.65;0.93;;;24.10;55.80;;;;;;6886437;28;20515;-79
2022/08/07 11:48:39;;;;;;;2.50;0.73;;;24.20;56.50;;;;;;6893263;28;20947;-78
2022/08/07 11:52:27;;;;;;;2.92;0.90;;;24.20;55.00;;;;;;6895765;28;20434;-79
2022/08/07 11:56:13;;;;;;;3.30;1.40;;;24.30;55.50;;;;;;6894550;28;20441;-80
2022/08/07 11:59:57;;;;;;;2.60;1.00;;;24.50;55.80;;;;;;6894234;28;20442;-79
2022/08/07 12:03:45;;;;;;;2.15;0.88;;;24.60;55.70;;;;;;6894746;28;20438;-80
2022/08/07 12:07:16;;;;;;;2.92;1.00;;;24.70;54.70;;;;;;6890638;28;20543;-80
2022/08/07 12:10:47;;;;;;;3.55;1.00;;;24.60;54.80;;;;;;6891782;28;20808;-79
2022/08/07 12:14:17;;;;;;;2.43;0.90;;;24.70;56.30;;;;;;6891151;28;20441;-78
2022/08/07 12:17:45;;;;;;;3.83;1.00;;;24.90;55.50;;;;;;6885523;28;21041;-79
2022/08/07 12:21:25;;;;;;;2.33;0.88;;;25.00;55.40;;;;;;6891550;28;20438;-78
2022/08/07 12:28:47;;;;;;;3.33;1.00;;;25.20;55.20;;;;;;6887758;28;20433;-78
2022/08/07 12:32:19;;;;;;;2.75;1.00;;;25.30;55.00;;;;;;6891480;28;20464;-84
2022/08/07 12:35:42;;;;;;;2.83;0.98;;;25.50;56.10;;;;;;6864539;28;20881;-80
2022/08/07 12:39:06;;;;;;;2.40;0.80;;;25.80;55.70;;;;;;6886411;28;20482;-78
2022/08/07 12:42:30;;;;;;;2.55;0.98;;;25.90;54.10;;;;;;6889712;28;20473;-79
2022/08/07 12:46:06;;;;;;;1.92;0.80;;;25.90;53.30;;;;;;6901197;28;20441;-79
2022/08/07 12:49:40;;;;;;;2.78;1.00;;;25.90;54.00;;;;;;6892135;28;20477;-78
2022/08/07 12:53:11;;;;;;;2.60;1.00;;;25.90;53.60;;;;;;6890706;28;20441;-80
2022/08/07 12:56:36;;;;;;;1.92;0.90;;;26.20;53.70;;;;;;6890068;28;20449;-79
2022/08/07 13:00:00;;;;;;;2.65;1.00;;;26.40;53.80;;;;;;6894961;28;20789;-78
2022/08/07 13:03:58;;;;;;;3.08;1.00;;;26.50;53.20;;;;;;6892272;28;20442;-79
2022/08/07 13:07:55;;;;;;;3.33;1.00;;;26.60;52.20;;;;;;6852841;28;20446;-79
2022/08/07 13:11:39;;;;;;;5.10;1.20;;;26.60;52.50;;;;;;6888362;28;20438;-77
2022/08/07 13:15:14;;;;;;;2.88;0.98;;;26.80;52.20;;;;;;6875514;28;20450;-79
2022/08/07 13:18:45;;;;;;;3.17;1.00;;;26.80;52.90;;;;;;6887685;28;20485;-80
2022/08/07 13:22:16;;;;;;;3.30;1.02;;;27.10;52.00;;;;;;6887896;28;20442;-78
2022/08/07 13:25:47;;;;;;;3.65;1.65;;;27.10;51.70;;;;;;6886301;28;20928;-77
2022/08/07 13:29:15;;;;;;;4.95;2.72;;;27.20;52.40;;;;;;6884841;28;20480;-78
2022/08/07 13:32:45;;;;;;;3.07;1.30;;;27.40;52.30;;;;;;6886289;28;20572;-79
2022/08/07 13:36:13;;;;;;;2.92;1.20;;;27.60;52.00;;;;;;6886123;28;20469;-78
2022/08/07 13:39:48;;;;;;;3.67;1.07;;;27.60;51.60;;;;;;6878371;28;20440;-81
2022/08/07 13:43:15;;;;;;;2.63;1.13;;;27.50;51.70;;;;;;6878278;28;20944;-81
2022/08/07 13:46:41;;;;;;;2.55;1.02;;;27.40;52.30;;;;;;6885416;28;20445;-78
2022/08/07 13:50:06;;;;;;;3.47;1.40;;;27.70;51.80;;;;;;6887140;28;20501;-80
2022/08/07 13:53:35;;;;;;;2.60;1.00;;;28.10;51.70;;;;;;6887098;28;20796;-81
2022/08/07 13:57:01;;;;;;;2.85;1.20;;;28.30;50.80;;;;;;6884538;28;20443;-80
2022/08/07 14:00:36;;;;;;;2.75;1.25;;;28.40;50.40;;;;;;6890006;28;20525;-81
2022/08/07 14:04:02;;;;;;;2.63;1.00;;;28.30;51.10;;;;;;6884652;28;20836;-78
2022/08/07 14:07:30;;;;;;;3.13;1.10;;;28.20;50.70;;;;;;6884878;28;20928;-79
2022/08/07 14:10:52;;;;;;;2.42;1.00;;;28.40;50.10;;;;;;6883159;28;20896;-78
2022/08/07 14:14:18;;;;;;;2.60;1.10;;;28.50;49.60;;;;;;6884008;28;20929;-79
2022/08/07 14:17:47;;;;;;;2.70;1.00;;;28.50;49.20;;;;;;6885817;28;20537;-79
2022/08/07 14:21:13;;;;;;;2.80;1.10;;;28.80;49.30;;;;;;6885315;28;20465;-79
2022/08/07 14:24:40;;;;;;;2.92;1.10;;;28.60;49.40;;;;;;6883984;28;20442;-78
2022/08/07 14:28:08;;;;;;;7.50;4.13;;;28.60;49.30;;;;;;6884707;28;21034;-79
2022/08/07 14:31:32;;;;;;;4.38;2.03;;;28.60;49.30;;;;;;6884269;28;20438;-78
2022/08/07 14:34:55;;;;;;;4.85;1.85;;;28.60;49.10;;;;;;6883544;28;20958;-80
2022/08/07 14:38:25;;;;;;;2.88;1.10;;;28.80;49.20;;;;;;6884846;28;20502;-79
2022/08/07 14:41:49;;;;;;;4.00;1.02;;;28.80;48.10;;;;;;6882998;28;20560;-80
2022/08/07 14:45:13;;;;;;;3.65;1.20;;;28.70;48.80;;;;;;6881678;28;20438;-81
2022/08/07 14:48:40;;;;;;;3.08;1.00;;;28.80;48.30;;;;;;6857466;28;20891;-79
2022/08/07 14:52:04;;;;;;;2.88;1.10;;;28.60;48.10;;;;;;6857336;28;20442;-80
2022/08/07 14:55:32;;;;;;;4.03;1.00;;;28.80;48.40;;;;;;6875595;28;20449;-78
2022/08/07 14:58:57;;;;;;;2.83;1.00;;;29.00;48.20;;;;;;6883907;28;20481;-77
2022/08/07 15:02:23;;;;;;;4.53;1.10;;;29.20;46.50;;;;;;6883985;28;20434;-79
2022/08/07 15:05:48;;;;;;;2.92;1.00;;;29.20;47.30;;;;;;6878466;28;20469;-80
2022/08/07 15:09:14;;;;;;;2.92;1.00;;;29.40;47.20;;;;;;6879614;28;20449;-82
2022/08/07 15:12:42;;;;;;;2.75;1.10;;;29.50;46.10;;;;;;6883670;28;20796;-80
2022/08/07 15:16:10;;;;;;;2.70;0.97;;;29.50;46.20;;;;;;6867469;28;20448;-79
2022/08/07 15:19:37;;;;;;;2.20;0.90;;;29.50;46.40;;;;;;6877345;28;20943;-79
2022/08/07 15:23:01;;;;;;;2.70;1.00;;;29.60;46.90;;;;;;6882121;28;20446;-81
2022/08/07 15:26:36;;;;;;;2.45;0.90;;;29.80;46.20;;;;;;6881847;28;20470;-79
2022/08/07 15:30:08;;;;;;;3.10;1.00;;;29.90;46.00;;;;;;6881917;28;20495;-79
2022/08/07 15:33:31;;;;;;;2.38;1.00;;;30.10;45.40;;;;;;6857686;28;20439;-78
2022/08/07 15:36:55;;;;;;;2.63;1.00;;;30.10;45.50;;;;;;6885739;28;20484;-79
2022/08/07 15:40:20;;;;;;;2.10;0.87;;;30.10;44.70;;;;;;6882305;28;20446;-80
2022/08/07 15:43:44;;;;;;;2.20;1.00;;;30.20;44.40;;;;;;6883664;28;20517;-79
2022/08/07 15:47:07;;;;;;;2.20;1.00;;;30.40;44.50;;;;;;6884037;28;20434;-80
2022/08/07 15:50:33;;;;;;;2.75;1.00;;;30.20;45.10;;;;;;6883678;28;20457;-81
2022/08/07 15:53:58;;;;;;;4.13;1.30;;;30.10;44.50;;;;;;6881971;28;20430;-79
2022/08/07 15:57:26;;;;;;;2.92;1.00;;;30.40;45.20;;;;;;6883644;28;20442;-78
2022/08/07 16:00:50;;;;;;;2.50;0.95;;;30.50;44.30;;;;;;6883388;28;20501;-79
2022/08/07 16:04:14;;;;;;;5.60;2.83;;;30.60;44.50;;;;;;6882236;28;20438;-85
2022/08/07 16:07:48;;;;;;;5.27;2.80;;;30.60;44.40;;;;;;6882635;28;20477;-80
2022/08/07 16:11:28;;;;;;;2.40;1.00;;;30.60;43.40;;;;;;6883180;28;20925;-79
2022/08/07 16:15:22;;;;;;;2.08;1.00;;;30.70;43.70;;;;;;6883404;28;20963;-84
2022/08/07 16:19:06;;;;;;;3.27;1.00;;;30.60;43.60;;;;;;6899037;28;20920;-86
2022/08/07 16:22:48;;;;;;;2.50;0.90;;;30.60;43.00;;;;;;6883960;28;20434;-86
2022/08/07 16:26:17;;;;;;;3.35;0.95;;;30.70;43.50;;;;;;6881432;28;20434;-78
2022/08/07 16:30:04;;;;;;;3.38;1.10;;;31.00;43.40;;;;;;6885836;28;20478;-78
2022/08/07 16:33:30;;;;;;;3.85;1.20;;;31.50;42.20;;;;;;6882514;28;20430;-79
2022/08/07 16:37:47;;;;;;;3.25;1.10;;;31.30;42.60;;;;;;6889505;28;20778;-85
2022/08/07 16:41:28;;;;;;;2.30;1.00;;;31.40;42.40;;;;;;6826533;28;20431;-79
2022/08/07 16:45:12;;;;;;;2.53;0.90;;;31.20;42.60;;;;;;6890224;28;20441;-79
2022/08/07 16:49:27;;;;;;;2.65;1.00;;;31.10;43.30;;;;;;6907566;28;20443;-78
2022/08/07 16:53:26;;;;;;;4.60;1.23;;;31.10;43.40;;;;;;6884340;28;20485;-86
2022/08/07 16:57:03;;;;;;;4.68;1.55;;;31.00;51.10;;;;;;6902131;28;22126;-78
2022/08/07 17:00:38;;;;;;;2.83;1.20;;;31.00;45.40;;;;;;6915015;28;20594;-77
2022/08/07 17:04:14;;;;;;;3.50;1.60;;;30.60;43.60;;;;;;6915736;28;20428;-75
2022/08/07 17:07:50;;;;;;;3.88;1.60;;;30.50;49.70;;;;;;6916453;28;20432;-77
2022/08/07 17:11:22;;;;;;;2.80;1.10;;;30.40;48.20;;;;;;6896177;28;20441;-78
2022/08/07 17:14:56;;;;;;;3.63;1.23;;;30.10;44.50;;;;;;6914208;28;20945;-82
2022/08/07 17:18:30;;;;;;;3.35;1.08;;;30.10;49.30;;;;;;6926423;28;20436;-86
2022/08/07 17:22:02;;;;;;;2.22;1.05;;;30.20;43.70;;;;;;6923207;28;20433;-83
2022/08/07 17:25:34;;;;;;;18.83;13.30;;;30.20;43.60;;;;;;6918107;28;20907;-84
2022/08/07 17:29:11;;;;;;;4.32;2.08;;;30.10;44.50;;;;;;6919728;28;20443;-79
2022/08/07 17:32:47;;;;;;;3.85;1.95;;;30.10;43.50;;;;;;6917697;28;20429;-84
2022/08/07 17:36:18;;;;;;;2.90;1.02;;;29.70;43.00;;;;;;6913986;28;20447;-81
2022/08/07 17:39:49;;;;;;;3.65;1.20;;;29.80;43.30;;;;;;6912353;28;20550;-80
2022/08/07 17:43:17;;;;;;;2.75;1.02;;;29.40;43.70;;;;;;6911970;28;20437;-80
2022/08/07 17:46:49;;;;;;;2.80;1.10;;;29.30;44.30;;;;;;6912893;28;20428;-84
2022/08/07 17:50:18;;;;;;;2.95;1.05;;;29.30;43.90;;;;;;6912986;28;20432;-81
2022/08/07 17:53:53;;;;;;;2.78;0.90;;;29.00;44.50;;;;;;6884830;28;20946;-81
2022/08/07 17:57:24;;;;;;;4.07;1.05;;;28.90;44.70;;;;;;6886120;28;20532;-81
2022/08/07 18:00:53;;;;;;;2.40;1.20;;;28.50;44.30;;;;;;6898588;28;20450;-81
2022/08/07 18:04:30;;;;;;;4.28;1.10;;;28.50;44.50;;;;;;6917758;28;20447;-80
2022/08/07 18:08:03;;;;;;;3.97;1.10;;;28.30;44.80;;;;;;6923845;28;20521;-79
2022/08/07 18:11:33;;;;;;;3.92;1.30;;;28.30;44.90;;;;;;6867361;28;20443;-80
2022/08/07 18:15:03;;;;;;;4.63;1.20;;;28.40;45.30;;;;;;6887262;28;20522;-81
2022/08/07 18:18:32;;;;;;;3.47;1.10;;;28.50;44.70;;;;;;6897365;28;20885;-80